Time;durP1;ratioP1;P1;durP2;ratioP2;P2;SDS_P1;SDS_P2;PMS_P1;PMS_P2;Temp;Humidity;BMP_temperature;BMP_pressure;BME280_temperature;BME280_humidity;BME280_pressure;Samples;Min_cycle;Max_cycle;Signal;HPM_P1;HPM_P2
2023/09/07 00:00:48;;;;;;;4.80;4.40;;;21.10;99.90;;;;;;5033057;28;20449;-73
2023/09/07 00:03:16;;;;;;;5.03;4.63;;;21.10;99.90;;;;;;5033731;28;20769;-73
2023/09/07 00:05:46;;;;;;;4.27;3.87;;;21.00;99.90;;;;;;5032764;28;20455;-73
2023/09/07 00:08:15;;;;;;;4.83;4.43;;;21.00;99.90;;;;;;5033265;28;20809;-73
2023/09/07 00:10:43;;;;;;;5.53;5.03;;;20.90;99.90;;;;;;5031664;28;20443;-73
2023/09/07 00:13:14;;;;;;;4.50;4.10;;;20.90;99.90;;;;;;5032912;28;20462;-73
2023/09/07 00:15:42;;;;;;;5.80;5.20;;;20.90;99.90;;;;;;5031623;28;20489;-73
2023/09/07 00:18:10;;;;;;;5.53;4.70;;;20.90;99.90;;;;;;5031593;28;20442;-73
2023/09/07 00:20:39;;;;;;;5.40;4.90;;;20.80;99.90;;;;;;5033007;28;20446;-73
2023/09/07 00:23:07;;;;;;;4.87;4.47;;;20.80;99.90;;;;;;5032710;28;20433;-73
2023/09/07 00:25:35;;;;;;;5.97;5.37;;;20.80;99.90;;;;;;5032812;28;20469;-73
2023/09/07 00:28:04;;;;;;;5.37;4.97;;;20.80;99.90;;;;;;5032773;28;20493;-73
2023/09/07 00:30:33;;;;;;;4.70;4.30;;;20.70;99.90;;;;;;5032807;28;20641;-73
2023/09/07 00:33:02;;;;;;;5.47;4.93;;;20.70;99.90;;;;;;5031352;28;21028;-73
2023/09/07 00:35:30;;;;;;;5.20;4.80;;;20.60;99.90;;;;;;5031502;28;20446;-73
2023/09/07 00:37:58;;;;;;;5.00;4.60;;;20.60;99.90;;;;;;5034337;28;20489;-73
2023/09/07 00:40:26;;;;;;;5.47;4.97;;;20.60;99.90;;;;;;5036587;28;20522;-73
2023/09/07 00:42:55;;;;;;;6.43;5.93;;;20.60;99.90;;;;;;5036962;28;20442;-73
2023/09/07 00:45:23;;;;;;;5.00;4.60;;;20.50;99.90;;;;;;5035146;28;20466;-73
2023/09/07 00:47:53;;;;;;;5.80;5.30;;;20.50;99.90;;;;;;5035135;28;20470;-73
2023/09/07 00:50:22;;;;;;;5.87;5.37;;;20.50;99.90;;;;;;5035178;28;20451;-73
2023/09/07 00:52:50;;;;;;;5.60;5.10;;;20.50;99.90;;;;;;5036391;28;20538;-73
2023/09/07 00:55:19;;;;;;;5.40;4.90;;;20.40;99.90;;;;;;5036529;28;20465;-73
2023/09/07 00:57:48;;;;;;;5.20;4.80;;;20.40;99.90;;;;;;5036160;28;20439;-73
2023/09/07 01:00:16;;;;;;;6.40;5.80;;;20.30;99.90;;;;;;5034868;28;20957;-73
2023/09/07 01:02:46;;;;;;;6.03;5.57;;;20.30;99.90;;;;;;5034837;28;20450;-73
2023/09/07 01:05:16;;;;;;;5.50;5.00;;;20.30;99.90;;;;;;5036202;28;20450;-73
2023/09/07 01:07:47;;;;;;;5.33;4.83;;;20.30;99.90;;;;;;5034818;28;20470;-73
2023/09/07 01:10:16;;;;;;;5.50;5.00;;;20.20;99.90;;;;;;5034903;28;20449;-73
2023/09/07 01:12:44;;;;;;;5.27;4.77;;;20.20;99.90;;;;;;5035949;28;20446;-73
2023/09/07 01:15:13;;;;;;;6.20;5.63;;;20.20;99.90;;;;;;5034510;28;20481;-73
2023/09/07 01:17:42;;;;;;;6.23;5.50;;;20.10;99.90;;;;;;5035928;28;20514;-73
2023/09/07 01:20:16;;;;;;;5.90;5.30;;;20.10;99.90;;;;;;5034739;28;20471;-73
2023/09/07 01:22:47;;;;;;;5.47;5.00;;;20.00;99.90;;;;;;5034766;28;20454;-73
2023/09/07 01:25:16;;;;;;;6.03;5.50;;;20.00;99.90;;;;;;5034774;28;20856;-73
2023/09/07 01:27:44;;;;;;;6.70;6.20;;;20.00;99.90;;;;;;5034318;28;20845;-73
2023/09/07 01:30:13;;;;;;;5.70;5.20;;;19.90;99.90;;;;;;5034592;28;20455;-73
2023/09/07 01:32:42;;;;;;;5.67;5.17;;;19.90;99.90;;;;;;5035831;28;20958;-73
2023/09/07 01:35:12;;;;;;;5.43;4.93;;;19.90;99.90;;;;;;5035476;28;20490;-73
2023/09/07 01:37:40;;;;;;;5.80;5.23;;;19.80;99.90;;;;;;5035792;28;20847;-73
2023/09/07 01:40:10;;;;;;;6.00;5.50;;;19.80;99.90;;;;;;5035546;28;20431;-73
2023/09/07 01:42:39;;;;;;;5.40;4.93;;;19.70;99.90;;;;;;5035872;28;20447;-73
2023/09/07 01:45:08;;;;;;;5.73;5.33;;;19.70;99.90;;;;;;5034439;28;20465;-72
2023/09/07 01:47:36;;;;;;;5.67;5.17;;;19.60;99.90;;;;;;5034257;28;20466;-73
2023/09/07 01:50:06;;;;;;;6.60;6.00;;;19.60;99.90;;;;;;5032994;28;20439;-73
2023/09/07 01:52:37;;;;;;;6.03;5.53;;;19.60;99.90;;;;;;5034199;28;20458;-73
2023/09/07 01:55:05;;;;;;;6.87;6.20;;;19.50;99.90;;;;;;5033954;28;20466;-72
2023/09/07 01:57:35;;;;;;;7.10;6.60;;;19.50;99.90;;;;;;5034513;28;20479;-72
2023/09/07 02:00:05;;;;;;;6.50;5.87;;;19.50;99.90;;;;;;5033849;28;20439;-73
2023/09/07 02:02:40;;;;;;;6.60;6.00;;;19.40;99.90;;;;;;5035075;28;20427;-73
2023/09/07 02:05:09;;;;;;;6.53;5.90;;;19.40;99.90;;;;;;5035173;28;20470;-73
2023/09/07 02:07:37;;;;;;;6.17;5.67;;;19.40;99.90;;;;;;5033807;28;20882;-73
2023/09/07 02:10:06;;;;;;;6.17;5.57;;;19.40;99.90;;;;;;5035001;28;20957;-72
2023/09/07 02:12:36;;;;;;;6.37;5.77;;;19.30;99.90;;;;;;5034981;28;20435;-73
2023/09/07 02:15:06;;;;;;;6.50;6.00;;;19.20;99.90;;;;;;5033566;28;20536;-73
2023/09/07 02:17:34;;;;;;;6.30;5.73;;;19.30;99.90;;;;;;5033563;28;20480;-73
2023/09/07 02:20:07;;;;;;;6.17;5.67;;;19.20;99.90;;;;;;5033571;28;20956;-73
2023/09/07 02:22:36;;;;;;;6.43;5.77;;;19.20;99.90;;;;;;5035037;28;20810;-73
2023/09/07 02:25:05;;;;;;;5.90;5.40;;;19.10;99.90;;;;;;5035036;28;20455;-73
2023/09/07 02:27:34;;;;;;;7.53;6.90;;;19.10;99.90;;;;;;5033273;28;20474;-73
2023/09/07 02:30:04;;;;;;;6.53;5.93;;;19.10;99.90;;;;;;5034744;28;20478;-72
2023/09/07 02:32:33;;;;;;;6.77;5.53;;;19.00;99.90;;;;;;5033299;28;20477;-73
2023/09/07 02:35:01;;;;;;;5.77;5.37;;;19.00;99.90;;;;;;5034493;28;20973;-73
2023/09/07 02:37:29;;;;;;;6.70;6.10;;;19.00;99.90;;;;;;5033397;28;20454;-73
2023/09/07 02:39:57;;;;;;;6.03;5.53;;;19.00;99.90;;;;;;5033220;28;20502;-72
2023/09/07 02:42:26;;;;;;;6.27;5.67;;;19.00;99.90;;;;;;5033183;28;20443;-73
2023/09/07 02:44:54;;;;;;;6.43;5.70;;;18.90;99.90;;;;;;5033207;28;20516;-72
2023/09/07 02:47:24;;;;;;;6.80;6.20;;;18.90;99.90;;;;;;5034279;28;20451;-73
2023/09/07 02:49:52;;;;;;;6.73;6.23;;;18.80;99.90;;;;;;5034215;28;20447;-73
2023/09/07 02:52:20;;;;;;;6.67;6.00;;;18.80;99.90;;;;;;5032827;28;20957;-72
2023/09/07 02:54:49;;;;;;;7.40;6.60;;;18.80;99.90;;;;;;5032762;28;20455;-73
2023/09/07 02:57:17;;;;;;;7.20;6.60;;;18.80;99.90;;;;;;5034078;28;20450;-72
2023/09/07 02:59:46;;;;;;;6.67;6.07;;;18.70;99.90;;;;;;5032696;28;20517;-73
2023/09/07 03:02:14;;;;;;;7.60;7.00;;;18.70;99.90;;;;;;5032609;28;20938;-73
2023/09/07 03:04:44;;;;;;;6.40;5.80;;;18.70;99.90;;;;;;5032776;28;20514;-73
2023/09/07 03:07:13;;;;;;;6.33;5.73;;;18.60;99.90;;;;;;5032745;28;20479;-73
2023/09/07 03:09:41;;;;;;;6.90;6.30;;;18.60;99.90;;;;;;5032470;28;20474;-73
2023/09/07 03:12:09;;;;;;;6.63;6.03;;;18.60;99.90;;;;;;5033853;28;20862;-73
2023/09/07 03:14:38;;;;;;;7.27;6.60;;;18.60;99.90;;;;;;5033764;28;20545;-73
2023/09/07 03:17:06;;;;;;;6.80;6.20;;;18.50;99.90;;;;;;5032511;28;20942;-72
2023/09/07 03:19:37;;;;;;;6.70;6.20;;;18.50;99.90;;;;;;5032493;28;20953;-72
2023/09/07 03:22:07;;;;;;;6.57;6.00;;;18.50;99.90;;;;;;5032426;28;20530;-73
2023/09/07 03:24:35;;;;;;;7.30;6.70;;;18.40;99.90;;;;;;5033499;28;20509;-72
2023/09/07 03:27:04;;;;;;;6.70;6.10;;;18.40;99.90;;;;;;5032480;28;20451;-72
2023/09/07 03:29:35;;;;;;;6.97;6.40;;;18.40;99.90;;;;;;5032249;28;20467;-73
2023/09/07 03:32:06;;;;;;;7.70;7.10;;;18.30;99.90;;;;;;5032537;28;21024;-73
2023/09/07 03:34:34;;;;;;;8.23;7.33;;;18.30;99.90;;;;;;5032138;28;20470;-72
2023/09/07 03:37:05;;;;;;;7.77;7.07;;;18.30;99.90;;;;;;5032187;28;20522;-73
2023/09/07 03:39:35;;;;;;;8.40;7.60;;;18.20;99.90;;;;;;5033475;28;20419;-72
2023/09/07 03:42:04;;;;;;;8.53;7.83;;;18.20;99.90;;;;;;5033495;28;20457;-73
2023/09/07 03:44:32;;;;;;;7.50;6.80;;;18.20;99.90;;;;;;5033421;28;20501;-72
2023/09/07 03:47:02;;;;;;;7.00;6.40;;;18.20;99.90;;;;;;5032053;28;20446;-72
2023/09/07 03:49:30;;;;;;;7.57;6.97;;;18.10;99.90;;;;;;5033428;28;20806;-72
2023/09/07 03:51:58;;;;;;;8.53;7.73;;;18.10;99.90;;;;;;5032070;28;20450;-72
2023/09/07 03:54:26;;;;;;;7.70;6.60;;;18.10;99.90;;;;;;5033313;28;20425;-72
2023/09/07 03:56:56;;;;;;;8.33;7.63;;;18.10;99.90;;;;;;5031949;28;20439;-72
2023/09/07 03:59:24;;;;;;;7.87;7.20;;;18.00;99.90;;;;;;5031961;28;20573;-72
2023/09/07 04:01:53;;;;;;;7.60;6.80;;;18.00;99.90;;;;;;5031866;28;20438;-72
2023/09/07 04:04:21;;;;;;;7.07;6.40;;;18.00;99.90;;;;;;5033146;28;20485;-72
2023/09/07 04:06:50;;;;;;;7.50;6.90;;;18.00;99.90;;;;;;5031799;28;20533;-72
2023/09/07 04:09:18;;;;;;;7.93;7.33;;;17.90;99.90;;;;;;5033109;28;20506;-72
2023/09/07 04:11:46;;;;;;;8.77;7.97;;;17.90;99.90;;;;;;5031773;28;20451;-72
2023/09/07 04:14:16;;;;;;;8.57;7.87;;;17.90;99.90;;;;;;5035659;28;21015;-72
2023/09/07 04:16:44;;;;;;;8.30;7.47;;;17.90;99.90;;;;;;5035855;28;20451;-72
2023/09/07 04:19:12;;;;;;;8.67;7.97;;;17.80;99.90;;;;;;5035777;28;20497;-72
2023/09/07 04:21:40;;;;;;;9.00;8.20;;;17.80;99.90;;;;;;5035767;28;20446;-72
2023/09/07 04:24:08;;;;;;;9.33;8.53;;;17.80;99.90;;;;;;5035656;28;20441;-72
2023/09/07 04:26:38;;;;;;;8.13;7.53;;;17.80;99.90;;;;;;5035584;28;20534;-72
2023/09/07 04:29:08;;;;;;;8.87;8.17;;;17.70;99.90;;;;;;5035468;28;20886;-72
2023/09/07 04:31:37;;;;;;;10.10;9.20;;;17.70;99.90;;;;;;5035460;28;20470;-72
2023/09/07 04:34:06;;;;;;;9.53;8.63;;;17.70;99.90;;;;;;5035460;28;20449;-72
2023/09/07 04:36:34;;;;;;;10.00;9.10;;;17.70;99.90;;;;;;5035421;28;20778;-72
2023/09/07 04:39:03;;;;;;;9.23;8.40;;;17.60;99.90;;;;;;5035363;28;20788;-72
2023/09/07 04:41:31;;;;;;;9.80;8.33;;;17.60;99.90;;;;;;5035545;28;20950;-72
2023/09/07 04:43:59;;;;;;;9.43;8.53;;;17.60;99.90;;;;;;5035231;28;20477;-72
2023/09/07 04:46:28;;;;;;;8.60;7.90;;;17.60;99.90;;;;;;5035719;28;20967;-72
2023/09/07 04:48:57;;;;;;;9.40;8.50;;;17.50;99.90;;;;;;5035232;28;20540;-72
2023/09/07 04:51:26;;;;;;;8.67;7.87;;;17.50;99.90;;;;;;5035085;28;20425;-72
2023/09/07 04:53:54;;;;;;;10.00;9.10;;;17.50;99.90;;;;;;5035543;28;20445;-72
2023/09/07 04:56:23;;;;;;;11.13;10.03;;;17.50;99.90;;;;;;5035352;28;20447;-72
2023/09/07 04:58:51;;;;;;;10.73;9.83;;;17.50;99.90;;;;;;5035182;28;20426;-72
2023/09/07 05:01:19;;;;;;;11.53;10.53;;;17.50;99.90;;;;;;5036572;28;20439;-72
2023/09/07 05:03:48;;;;;;;12.07;11.03;;;17.50;99.90;;;;;;5034757;28;20474;-73
2023/09/07 05:06:18;;;;;;;11.53;10.53;;;17.50;99.90;;;;;;5036449;28;20755;-72
2023/09/07 05:08:46;;;;;;;10.63;9.73;;;17.50;99.90;;;;;;5036310;28;20469;-73
2023/09/07 05:11:15;;;;;;;12.40;11.40;;;17.50;99.90;;;;;;5034900;28;20484;-72
2023/09/07 05:13:43;;;;;;;11.60;10.60;;;17.50;99.90;;;;;;5034677;28;20607;-72
2023/09/07 05:16:11;;;;;;;11.90;10.80;;;17.50;99.90;;;;;;5034652;28;20440;-72
2023/09/07 05:18:42;;;;;;;12.37;11.27;;;17.50;99.90;;;;;;5035170;28;20530;-72
2023/09/07 05:21:14;;;;;;;12.33;11.13;;;17.50;99.90;;;;;;5034662;28;20453;-72
2023/09/07 05:23:44;;;;;;;14.30;13.00;;;17.50;99.90;;;;;;5035847;28;20458;-72
2023/09/07 05:26:12;;;;;;;13.00;11.90;;;17.50;99.90;;;;;;5035754;28;20449;-73
2023/09/07 05:28:42;;;;;;;12.50;11.40;;;17.50;99.90;;;;;;5034398;28;20501;-73
2023/09/07 05:31:11;;;;;;;12.77;11.67;;;17.50;99.90;;;;;;5034479;28;20418;-72
2023/09/07 05:33:39;;;;;;;11.97;10.93;;;17.50;99.90;;;;;;5034332;28;20494;-72
2023/09/07 05:36:08;;;;;;;12.03;11.03;;;17.50;99.90;;;;;;5035537;28;20820;-72
2023/09/07 05:38:37;;;;;;;13.90;12.70;;;17.50;99.90;;;;;;5034349;28;20521;-72
2023/09/07 05:41:08;;;;;;;13.13;11.93;;;17.60;99.90;;;;;;5034288;28;20477;-72
2023/09/07 05:43:36;;;;;;;12.57;11.47;;;17.60;99.90;;;;;;5034190;28;20445;-72
2023/09/07 05:46:05;;;;;;;12.07;10.97;;;17.60;99.90;;;;;;5034286;28;20451;-72
2023/09/07 05:48:34;;;;;;;12.10;11.10;;;17.60;99.90;;;;;;5034095;28;20453;-72
2023/09/07 05:51:03;;;;;;;13.60;12.33;;;17.60;99.90;;;;;;5034025;28;20442;-72
2023/09/07 05:53:31;;;;;;;13.50;12.30;;;17.60;99.90;;;;;;5033920;28;20449;-72
2023/09/07 05:56:00;;;;;;;12.20;11.20;;;17.60;99.90;;;;;;5034555;28;20475;-72
2023/09/07 05:58:29;;;;;;;13.87;12.53;;;17.60;99.90;;;;;;5035547;28;20463;-72
2023/09/07 06:00:58;;;;;;;12.60;11.60;;;17.60;99.90;;;;;;5033866;28;20422;-72
2023/09/07 06:03:26;;;;;;;14.03;12.73;;;17.70;99.90;;;;;;5033760;28;20473;-72
2023/09/07 06:05:55;;;;;;;14.23;13.00;;;17.70;99.90;;;;;;5033708;28;20479;-72
2023/09/07 06:08:23;;;;;;;13.10;11.87;;;17.80;99.90;;;;;;5033774;28;20425;-72
2023/09/07 06:10:51;;;;;;;11.03;10.03;;;17.80;99.90;;;;;;5034853;28;20491;-72
2023/09/07 06:13:20;;;;;;;12.57;11.37;;;17.90;99.90;;;;;;5033529;28;20458;-72
2023/09/07 06:15:52;;;;;;;12.70;11.40;;;18.00;99.90;;;;;;5033613;28;20795;-72
2023/09/07 06:18:20;;;;;;;11.63;10.63;;;18.20;99.90;;;;;;5033604;28;20422;-72
2023/09/07 06:20:49;;;;;;;12.37;11.10;;;18.30;99.90;;;;;;5034946;28;20446;-72
2023/09/07 06:23:18;;;;;;;12.20;11.00;;;18.50;99.90;;;;;;5033474;28;20490;-72
2023/09/07 06:25:46;;;;;;;12.33;11.13;;;18.60;99.90;;;;;;5033445;28;20458;-72
2023/09/07 06:28:14;;;;;;;11.30;10.20;;;18.70;99.90;;;;;;5033348;28;20473;-72
2023/09/07 06:30:42;;;;;;;10.90;9.87;;;18.90;99.90;;;;;;5033229;28;20470;-72
2023/09/07 06:33:12;;;;;;;10.40;9.50;;;19.10;99.90;;;;;;5034731;28;20482;-72
2023/09/07 06:35:40;;;;;;;11.60;10.50;;;19.20;99.90;;;;;;5032584;28;20480;-72
2023/09/07 06:38:08;;;;;;;9.40;8.60;;;19.30;99.90;;;;;;5033159;28;20451;-73
2023/09/07 06:40:37;;;;;;;9.63;8.70;;;19.50;99.90;;;;;;5033221;28;20830;-72
2023/09/07 06:43:05;;;;;;;11.20;10.20;;;19.60;99.90;;;;;;5035096;28;20431;-73
2023/09/07 06:45:35;;;;;;;10.13;9.17;;;19.70;99.90;;;;;;5033160;28;20505;-72
2023/09/07 06:48:05;;;;;;;12.07;10.27;;;19.90;99.90;;;;;;5033085;28;20801;-72
2023/09/07 06:50:34;;;;;;;10.00;9.13;;;20.00;99.90;;;;;;5034416;28;20463;-72
2023/09/07 06:53:03;;;;;;;11.37;9.70;;;20.10;99.90;;;;;;5034158;28;20514;-72
2023/09/07 06:55:31;;;;;;;10.47;9.47;;;20.20;99.90;;;;;;5034363;28;20443;-72
2023/09/07 06:58:01;;;;;;;9.97;9.00;;;20.30;99.90;;;;;;5032891;28;20439;-72
2023/09/07 07:00:29;;;;;;;10.63;9.63;;;20.40;99.90;;;;;;5033318;28;20962;-72
2023/09/07 07:02:58;;;;;;;9.93;9.03;;;20.50;99.90;;;;;;5033136;28;20450;-72
2023/09/07 07:05:28;;;;;;;10.90;9.90;;;20.60;99.90;;;;;;5034688;28;20451;-72
2023/09/07 07:07:58;;;;;;;9.80;8.90;;;20.70;99.90;;;;;;5034074;28;20985;-72
2023/09/07 07:10:26;;;;;;;10.40;9.00;;;20.70;99.90;;;;;;5033569;28;20474;-72
2023/09/07 07:12:54;;;;;;;9.77;8.77;;;20.80;99.90;;;;;;5033268;28;20475;-72
2023/09/07 07:15:22;;;;;;;9.57;8.60;;;20.80;99.90;;;;;;5033023;28;20455;-72
2023/09/07 07:17:51;;;;;;;9.47;8.57;;;20.80;99.90;;;;;;5033042;28;20446;-72
2023/09/07 07:20:19;;;;;;;10.33;9.30;;;20.80;99.90;;;;;;5033142;28;20449;-72
2023/09/07 07:22:47;;;;;;;15.20;9.90;;;20.80;99.90;;;;;;5033261;28;20475;-72
2023/09/07 07:25:19;;;;;;;9.63;8.73;;;20.80;99.90;;;;;;5033082;28;20946;-72
2023/09/07 07:27:47;;;;;;;8.73;7.93;;;20.90;99.90;;;;;;5034710;28;20481;-71
2023/09/07 07:30:16;;;;;;;8.77;7.90;;;20.90;99.90;;;;;;5033589;28;20478;-72
2023/09/07 07:32:44;;;;;;;10.30;9.37;;;20.90;99.90;;;;;;5034166;28;20434;-72
2023/09/07 07:35:14;;;;;;;11.20;10.10;;;20.90;99.90;;;;;;5032776;28;20478;-72
2023/09/07 07:37:43;;;;;;;9.63;8.73;;;20.90;99.90;;;;;;5033020;28;20501;-72
2023/09/07 07:40:12;;;;;;;8.23;7.43;;;21.00;99.90;;;;;;5033990;28;20431;-73
2023/09/07 07:42:42;;;;;;;10.40;8.93;;;21.00;99.90;;;;;;5032873;28;20446;-72
2023/09/07 07:45:10;;;;;;;10.07;9.10;;;21.10;99.90;;;;;;5032770;28;20467;-72
2023/09/07 07:47:39;;;;;;;10.17;9.10;;;21.10;99.90;;;;;;5033566;28;20430;-73
2023/09/07 07:50:08;;;;;;;10.10;8.53;;;21.20;99.90;;;;;;5033400;28;20454;-72
2023/09/07 07:52:36;;;;;;;9.60;8.27;;;21.30;99.90;;;;;;5033245;28;20450;-73
2023/09/07 07:55:06;;;;;;;8.40;7.70;;;21.40;99.90;;;;;;5033505;28;20992;-73
2023/09/07 07:57:34;;;;;;;9.03;8.13;;;21.50;99.90;;;;;;5033308;28;20973;-73
2023/09/07 08:00:06;;;;;;;7.93;7.13;;;21.60;99.90;;;;;;5032899;28;20566;-73
2023/09/07 08:02:51;;;;;;;8.33;7.63;;;21.70;99.90;;;;;;5032413;28;20454;-73
2023/09/07 08:05:19;;;;;;;8.53;7.70;;;21.90;99.90;;;;;;5032459;28;20458;-72
2023/09/07 08:07:47;;;;;;;8.10;7.40;;;22.00;99.90;;;;;;5032224;28;20439;-72
2023/09/07 08:10:16;;;;;;;8.77;7.97;;;22.10;99.90;;;;;;5032849;28;20443;-72
2023/09/07 08:12:44;;;;;;;9.30;8.40;;;22.20;99.90;;;;;;5032458;28;20447;-72
2023/09/07 08:15:15;;;;;;;9.10;8.20;;;22.30;99.90;;;;;;5032399;28;20559;-72
2023/09/07 08:17:43;;;;;;;8.27;7.57;;;22.30;99.90;;;;;;5033969;28;20526;-73
2023/09/07 08:20:11;;;;;;;8.77;7.93;;;22.40;99.90;;;;;;5032996;28;20442;-73
2023/09/07 08:22:41;;;;;;;8.37;7.60;;;22.50;99.90;;;;;;5032679;28;20447;-73
2023/09/07 08:25:12;;;;;;;9.37;8.37;;;22.60;99.90;;;;;;5032760;28;20470;-72
2023/09/07 08:27:44;;;;;;;9.10;8.20;;;22.70;99.90;;;;;;5032657;28;20447;-73
2023/09/07 08:30:15;;;;;;;9.70;8.70;;;22.70;99.90;;;;;;5034125;28;20427;-72
2023/09/07 08:32:44;;;;;;;7.90;7.30;;;22.80;99.90;;;;;;5033741;28;20425;-73
2023/09/07 08:35:13;;;;;;;8.00;7.30;;;22.90;99.90;;;;;;5033567;28;20455;-73
2023/09/07 08:37:42;;;;;;;11.10;10.00;;;23.00;99.90;;;;;;5033877;28;20439;-72
2023/09/07 08:40:11;;;;;;;10.60;9.60;;;23.10;99.90;;;;;;5033938;28;20485;-73
2023/09/07 08:42:40;;;;;;;7.80;7.20;;;23.20;99.90;;;;;;5033731;28;20462;-72
2023/09/07 08:45:10;;;;;;;7.07;6.37;;;23.30;99.90;;;;;;5033470;28;20454;-72
2023/09/07 08:47:40;;;;;;;7.10;6.20;;;23.30;99.90;;;;;;5032688;28;20449;-72
2023/09/07 08:50:09;;;;;;;8.00;7.30;;;23.40;99.90;;;;;;5032601;28;20443;-72
2023/09/07 08:52:38;;;;;;;7.33;6.70;;;23.50;99.90;;;;;;5033986;28;20470;-72
2023/09/07 08:55:07;;;;;;;8.40;7.60;;;23.50;99.90;;;;;;5034234;28;20461;-73
2023/09/07 08:57:35;;;;;;;7.47;6.53;;;23.60;99.90;;;;;;5033987;28;20533;-73
2023/09/07 09:00:08;;;;;;;8.60;7.00;;;23.70;99.90;;;;;;5037570;28;20441;-73
2023/09/07 09:02:36;;;;;;;8.23;7.43;;;23.80;99.90;;;;;;5037064;28;20471;-73
2023/09/07 09:05:09;;;;;;;7.60;6.90;;;23.90;99.90;;;;;;5036956;28;20564;-72
2023/09/07 09:07:38;;;;;;;7.63;6.97;;;24.00;99.90;;;;;;5037446;28;20427;-73
2023/09/07 09:10:07;;;;;;;10.57;9.60;;;24.00;99.90;;;;;;5035427;28;20533;-72
2023/09/07 09:12:35;;;;;;;9.20;8.40;;;24.10;99.90;;;;;;5036482;28;20511;-72
2023/09/07 09:15:04;;;;;;;7.67;6.97;;;24.20;99.90;;;;;;5037775;28;20454;-73
2023/09/07 09:17:32;;;;;;;8.50;7.80;;;24.30;99.90;;;;;;5037667;28;20475;-74
2023/09/07 09:20:00;;;;;;;8.03;7.33;;;24.30;99.90;;;;;;5038018;28;20431;-73
2023/09/07 09:22:30;;;;;;;8.17;7.47;;;24.40;99.90;;;;;;5037511;28;20970;-74
2023/09/07 09:25:03;;;;;;;7.83;7.17;;;24.50;99.90;;;;;;5037665;28;20508;-73
2023/09/07 09:27:32;;;;;;;8.63;7.73;;;24.60;99.90;;;;;;5036102;28;20899;-73
2023/09/07 09:30:00;;;;;;;7.63;7.03;;;24.70;99.90;;;;;;5036217;28;20473;-73
2023/09/07 09:32:30;;;;;;;8.73;6.80;;;24.70;99.90;;;;;;5037642;28;20517;-73
2023/09/07 09:35:02;;;;;;;7.40;6.70;;;24.80;99.90;;;;;;5037505;28;21048;-73
2023/09/07 09:37:32;;;;;;;8.23;7.43;;;24.90;99.90;;;;;;5036370;28;20498;-73
2023/09/07 09:40:03;;;;;;;7.70;7.00;;;24.90;99.90;;;;;;5038085;28;20459;-73
2023/09/07 09:42:31;;;;;;;7.53;6.90;;;25.00;99.90;;;;;;5037567;28;20424;-73
2023/09/07 09:45:00;;;;;;;7.30;6.70;;;25.10;99.90;;;;;;5037385;28;20493;-73
2023/09/07 09:47:29;;;;;;;7.77;7.07;;;25.20;99.90;;;;;;5036880;28;20446;-74
2023/09/07 09:49:58;;;;;;;9.00;8.20;;;25.30;99.90;;;;;;5037300;28;20450;-73
2023/09/07 09:52:28;;;;;;;9.70;7.80;;;25.30;99.90;;;;;;5038142;28;20558;-74
2023/09/07 09:54:57;;;;;;;8.90;8.10;;;25.40;99.90;;;;;;5037500;28;20539;-73
2023/09/07 09:57:28;;;;;;;8.03;7.33;;;25.50;99.90;;;;;;5036209;28;20452;-73
2023/09/07 09:59:59;;;;;;;7.40;6.80;;;25.60;99.90;;;;;;5037635;28;20438;-73
2023/09/07 10:02:27;;;;;;;7.20;6.60;;;25.60;99.90;;;;;;5037113;28;20433;-73
2023/09/07 10:04:56;;;;;;;8.00;7.20;;;25.70;99.90;;;;;;5037122;28;20560;-73
2023/09/07 10:07:41;;;;;;;7.67;7.07;;;25.80;99.90;;;;;;5036533;28;20662;-74
2023/09/07 10:10:13;;;;;;;8.13;7.43;;;25.80;99.90;;;;;;5037302;28;20917;-73
2023/09/07 10:12:42;;;;;;;8.33;7.30;;;25.90;99.90;;;;;;5035798;28;20565;-74
2023/09/07 10:15:23;;;;;;;7.40;6.80;;;25.90;99.90;;;;;;5038020;28;21080;-73
2023/09/07 10:18:03;;;;;;;9.43;7.53;;;26.00;99.90;;;;;;5035780;28;20435;-73
2023/09/07 10:20:48;;;;;;;7.60;6.83;;;26.10;99.90;;;;;;5036911;28;20426;-73
2023/09/07 10:23:16;;;;;;;14.47;10.87;;;26.10;99.90;;;;;;5036726;28;20481;-73
2023/09/07 10:25:51;;;;;;;7.50;6.80;;;26.20;99.90;;;;;;5037503;28;20431;-73
2023/09/07 10:28:23;;;;;;;7.33;6.70;;;26.20;99.90;;;;;;5037591;28;20418;-74
2023/09/07 10:31:05;;;;;;;7.53;6.93;;;26.30;99.90;;;;;;5037804;28;20510;-74
2023/09/07 10:33:34;;;;;;;7.70;7.07;;;26.30;99.90;;;;;;5037422;28;20479;-74
2023/09/07 10:36:04;;;;;;;8.80;7.10;;;26.40;99.90;;;;;;5034099;28;20443;-74
2023/09/07 10:38:33;;;;;;;6.70;6.00;;;26.40;99.90;;;;;;5035247;28;20435;-74
2023/09/07 10:41:04;;;;;;;7.10;6.30;;;26.50;99.90;;;;;;5034969;28;20439;-74
2023/09/07 10:43:33;;;;;;;8.67;7.03;;;26.50;99.90;;;;;;5035078;28;20501;-74
2023/09/07 10:46:02;;;;;;;8.17;6.30;;;26.50;99.90;;;;;;5033856;28;20541;-74
2023/09/07 10:48:31;;;;;;;7.13;6.53;;;26.60;99.90;;;;;;5033405;28;20470;-74
2023/09/07 10:51:01;;;;;;;7.23;6.20;;;26.60;99.90;;;;;;5034938;28;20965;-74
2023/09/07 10:53:31;;;;;;;5.70;5.30;;;26.60;99.90;;;;;;5033464;28;20581;-74
2023/09/07 10:56:05;;;;;;;5.97;5.47;;;26.70;99.90;;;;;;5034947;28;20477;-74
2023/09/07 10:58:35;;;;;;;6.40;5.90;;;26.70;99.90;;;;;;5034600;28;20522;-74
2023/09/07 11:01:03;;;;;;;6.80;6.20;;;26.80;99.90;;;;;;5034772;28;20442;-74
2023/09/07 11:03:33;;;;;;;6.10;5.60;;;26.80;99.90;;;;;;5034352;28;20926;-74
2023/09/07 11:06:05;;;;;;;7.30;6.20;;;26.90;99.90;;;;;;5034523;28;20509;-74
2023/09/07 11:08:33;;;;;;;6.57;5.97;;;27.00;99.90;;;;;;5033421;28;20530;-74
2023/09/07 11:11:02;;;;;;;6.10;5.60;;;27.00;99.90;;;;;;5033063;28;20439;-74
2023/09/07 11:13:32;;;;;;;6.10;5.60;;;27.00;99.90;;;;;;5034175;28;20493;-74
2023/09/07 11:16:02;;;;;;;8.47;6.00;;;27.00;99.90;;;;;;5034237;28;20433;-74
2023/09/07 11:18:30;;;;;;;6.13;5.53;;;27.10;99.90;;;;;;5033401;28;20500;-74
2023/09/07 11:20:59;;;;;;;7.13;6.03;;;27.10;99.90;;;;;;5035131;28;20435;-74
2023/09/07 11:23:28;;;;;;;6.10;5.50;;;27.20;99.90;;;;;;5034563;28;20972;-74
2023/09/07 11:25:57;;;;;;;6.80;5.67;;;27.20;99.90;;;;;;5034167;28;20427;-74
2023/09/07 11:28:26;;;;;;;6.40;5.83;;;27.20;99.90;;;;;;5032663;28;20554;-74
2023/09/07 11:30:56;;;;;;;6.03;5.53;;;27.20;99.90;;;;;;5034042;28;20438;-74
2023/09/07 11:33:24;;;;;;;6.40;5.80;;;27.20;99.90;;;;;;5032507;28;20574;-74
2023/09/07 11:35:54;;;;;;;5.90;5.30;;;27.30;99.90;;;;;;5034038;28;20793;-74
2023/09/07 11:38:23;;;;;;;6.23;5.67;;;27.30;99.90;;;;;;5032493;28;20478;-75
2023/09/07 11:40:51;;;;;;;6.53;5.93;;;27.30;99.90;;;;;;5033598;28;20462;-74
2023/09/07 11:43:19;;;;;;;6.20;5.40;;;27.30;99.90;;;;;;5032360;28;20463;-74
2023/09/07 11:45:48;;;;;;;5.87;5.37;;;27.40;99.90;;;;;;5033795;28;20443;-74
2023/09/07 11:48:17;;;;;;;5.80;5.30;;;27.40;99.90;;;;;;5032545;28;20451;-74
2023/09/07 11:50:46;;;;;;;5.30;4.77;;;27.50;99.90;;;;;;5034288;28;20458;-74
2023/09/07 11:53:14;;;;;;;5.93;5.40;;;27.50;99.90;;;;;;5033601;28;20510;-74
2023/09/07 11:55:43;;;;;;;5.80;5.30;;;27.60;99.90;;;;;;5032213;28;20435;-74
2023/09/07 11:58:11;;;;;;;6.70;6.10;;;27.60;99.90;;;;;;5033839;28;20443;-74
2023/09/07 12:00:41;;;;;;;5.43;4.93;;;27.60;99.90;;;;;;5033569;28;20431;-74
2023/09/07 12:03:09;;;;;;;5.53;5.00;;;27.60;99.90;;;;;;5033768;28;20435;-74
2023/09/07 12:05:41;;;;;;;5.73;5.33;;;27.60;99.90;;;;;;5033582;28;20532;-74
2023/09/07 12:08:09;;;;;;;6.03;5.40;;;27.70;99.90;;;;;;5034019;28;20431;-73
2023/09/07 12:10:37;;;;;;;6.10;5.50;;;27.70;99.90;;;;;;5032067;28;20530;-74
2023/09/07 12:13:05;;;;;;;6.60;5.30;;;27.80;99.90;;;;;;5033345;28;20501;-74
2023/09/07 12:15:35;;;;;;;5.47;5.07;;;27.80;99.90;;;;;;5033766;28;20816;-74
2023/09/07 12:18:03;;;;;;;5.60;5.10;;;27.80;99.60;;;;;;5033096;28;20442;-74
2023/09/07 12:20:32;;;;;;;5.40;4.90;;;27.80;99.50;;;;;;5033081;28;20798;-75
2023/09/07 12:23:02;;;;;;;5.63;5.13;;;27.80;99.30;;;;;;5031694;28;20952;-74
2023/09/07 12:25:30;;;;;;;5.60;4.50;;;27.80;99.10;;;;;;5031698;28;20541;-74
2023/09/07 12:27:58;;;;;;;5.20;4.70;;;27.80;99.10;;;;;;5031818;28;20965;-74
2023/09/07 12:30:26;;;;;;;4.80;4.40;;;27.90;99.00;;;;;;5031770;28;20447;-74
2023/09/07 12:32:54;;;;;;;5.00;4.57;;;27.90;98.90;;;;;;5033088;28;20467;-74
2023/09/07 12:35:23;;;;;;;6.73;3.77;;;27.90;99.00;;;;;;5035973;28;20526;-74
2023/09/07 12:37:52;;;;;;;8.27;5.53;;;27.90;98.60;;;;;;5035449;28;21003;-74
2023/09/07 12:40:22;;;;;;;5.10;4.60;;;28.00;98.50;;;;;;5035625;28;20538;-74
2023/09/07 12:42:50;;;;;;;4.90;4.40;;;28.00;98.50;;;;;;5036590;28;20415;-74
2023/09/07 12:45:19;;;;;;;4.70;4.30;;;28.10;98.40;;;;;;5036712;28;20467;-74
2023/09/07 12:47:47;;;;;;;4.90;4.10;;;28.10;98.20;;;;;;5035705;28;20465;-74
2023/09/07 12:50:15;;;;;;;4.83;4.10;;;28.10;98.00;;;;;;5036662;28;20443;-74
2023/09/07 12:52:43;;;;;;;5.83;5.23;;;28.20;98.00;;;;;;5036461;28;20852;-74